createdAt,value
2022-08-18T00:00:20.714Z,22.50
2022-08-18T00:05:23.989Z,22.50
2022-08-18T00:10:27.869Z,22.40
2022-08-18T00:15:32.242Z,22.50
2022-08-18T00:20:45.226Z,22.30
2022-08-18T00:25:50.274Z,22.10
2022-08-18T00:30:54.629Z,22.00
2022-08-18T00:35:57.729Z,21.80
2022-08-18T00:41:02.449Z,21.80
2022-08-18T00:46:09.167Z,21.70
2022-08-18T00:51:15.463Z,21.50
2022-08-18T00:56:24.713Z,21.40
2022-08-18T01:01:31.879Z,21.20
2022-08-18T01:06:42.120Z,21.30
2022-08-18T01:11:45.510Z,21.10
2022-08-18T01:17:09.258Z,21.00
2022-08-18T01:22:18.282Z,21.10
2022-08-18T01:27:23.457Z,21.00
2022-08-18T01:32:27.638Z,20.80
2022-08-18T01:37:30.825Z,20.60
2022-08-18T01:42:35.823Z,20.60
2022-08-18T01:47:47.607Z,20.50
2022-08-18T01:52:53.779Z,20.40
2022-08-18T01:57:58.404Z,20.20
2022-08-18T02:03:03.015Z,20.10
2022-08-18T02:08:07.067Z,20.10
2022-08-18T02:13:13.036Z,20.00
2022-08-18T02:18:25.730Z,19.80
2022-08-18T02:23:41.136Z,19.70
2022-08-18T02:28:57.452Z,19.60
2022-08-18T02:34:00.700Z,19.50
2022-08-18T02:39:04.012Z,19.40
2022-08-18T02:44:08.618Z,19.30
2022-08-18T02:49:12.796Z,19.20
2022-08-18T02:54:15.877Z,19.10
2022-08-18T02:59:26.461Z,19.20
2022-08-18T03:04:31.286Z,19.20
2022-08-18T03:09:35.603Z,19.10
2022-08-18T03:14:40.130Z,19.00
2022-08-18T03:19:45.032Z,19.00
2022-08-18T03:24:50.959Z,18.90
2022-08-18T03:29:55.900Z,18.80
2022-08-18T03:35:01.724Z,18.90
2022-08-18T03:40:05.807Z,18.80
2022-08-18T03:45:17.358Z,18.70
2022-08-18T03:50:21.855Z,18.60
2022-08-18T03:55:25.626Z,18.60
2022-08-18T04:00:31.693Z,18.60
2022-08-18T04:05:39.522Z,18.70
2022-08-18T04:10:44.074Z,18.70
2022-08-18T04:15:48.748Z,18.80
2022-08-18T04:20:58.951Z,18.80
2022-08-18T04:26:02.900Z,18.90
2022-08-18T04:31:09.235Z,19.10
2022-08-18T04:36:20.659Z,19.10
2022-08-18T04:41:27.630Z,19.30
2022-08-18T04:46:36.475Z,19.60
2022-08-18T04:52:37.012Z,19.90
2022-08-18T04:57:10.443Z,20.00
2022-08-18T05:02:16.335Z,20.40
2022-08-18T05:07:23.036Z,20.70
2022-08-18T05:12:26.812Z,21.00
2022-08-18T05:17:32.040Z,21.30
2022-08-18T05:22:39.214Z,21.50
2022-08-18T05:27:43.850Z,21.70
2022-08-18T05:32:50.296Z,22.00
2022-08-18T05:38:11.338Z,22.30
2022-08-18T05:43:16.326Z,22.80
2022-08-18T05:48:20.698Z,23.00
2022-08-18T05:53:43.786Z,23.20
2022-08-18T05:58:51.468Z,23.50
2022-08-18T06:04:01.121Z,23.50
2022-08-18T06:09:10.774Z,24.00
2022-08-18T06:14:13.940Z,24.40
2022-08-18T06:19:30.255Z,25.10
2022-08-18T06:24:38.633Z,25.70
2022-08-18T06:29:53.586Z,26.30
2022-08-18T06:35:18.294Z,26.70
2022-08-18T06:40:21.477Z,26.30
2022-08-18T06:45:33.909Z,25.60
2022-08-18T06:50:49.050Z,25.10
2022-08-18T06:55:52.225Z,25.30
2022-08-18T07:00:59.824Z,25.40
2022-08-18T07:06:08.101Z,25.80
2022-08-18T07:11:14.876Z,25.50
2022-08-18T07:16:54.960Z,25.70
2022-08-18T07:22:06.293Z,25.90
2022-08-18T07:27:11.185Z,26.00
2022-08-18T07:32:20.971Z,25.90
2022-08-18T07:37:32.488Z,26.40
2022-08-18T07:43:01.428Z,26.90
2022-08-18T07:48:36.614Z,27.30
2022-08-18T07:53:42.838Z,27.70
2022-08-18T07:59:04.795Z,26.70
2022-08-18T08:04:26.235Z,27.40
2022-08-18T08:09:38.157Z,27.90
2022-08-18T08:14:42.847Z,28.30
2022-08-18T08:20:21.412Z,28.30
2022-08-18T08:25:47.151Z,27.60
2022-08-18T08:31:19.121Z,27.00
2022-08-18T08:36:29.862Z,27.70
2022-08-18T08:41:40.106Z,28.10
2022-08-18T08:46:49.549Z,28.70
2022-08-18T08:51:57.975Z,28.30
2022-08-18T08:57:04.877Z,28.70
2022-08-18T09:02:46.843Z,29.20
2022-08-18T09:08:15.067Z,28.80
2022-08-18T09:13:51.064Z,29.20
2022-08-18T09:19:12.918Z,30.20
2022-08-18T09:24:23.745Z,30.10
2022-08-18T09:29:49.012Z,31.50
2022-08-18T09:35:13.107Z,31.90
2022-08-18T09:46:06.839Z,30.10
2022-08-18T09:51:34.104Z,31.30
2022-08-18T09:57:19.622Z,32.20
2022-08-18T10:03:10.356Z,33.00
2022-08-18T10:08:58.625Z,34.00
2022-08-18T10:14:18.250Z,33.20
2022-08-18T10:19:33.877Z,33.70
2022-08-18T10:24:53.934Z,33.60
2022-08-18T10:29:58.261Z,34.10
2022-08-18T10:35:01.828Z,33.60
2022-08-18T10:40:16.326Z,33.70
2022-08-18T10:45:28.264Z,33.40
2022-08-18T10:50:38.519Z,33.20
2022-08-18T10:55:50.178Z,32.50
2022-08-18T11:01:10.547Z,34.80
2022-08-18T11:06:21.564Z,36.60
2022-08-18T11:17:07.020Z,35.50
2022-08-18T11:27:48.418Z,34.20
2022-08-18T11:38:23.199Z,37.10
2022-08-18T11:43:40.717Z,36.00
2022-08-18T11:48:53.523Z,35.00
2022-08-18T11:54:00.607Z,36.80
2022-08-18T11:59:06.939Z,37.90
2022-08-18T12:04:22.208Z,38.00
2022-08-18T12:15:07.964Z,38.50
2022-08-18T12:20:17.394Z,38.60
2022-08-18T12:25:24.604Z,38.70
2022-08-18T12:30:29.881Z,37.90
2022-08-18T12:35:34.737Z,36.20
2022-08-18T12:40:38.300Z,36.10
2022-08-18T12:45:43.329Z,36.00
2022-08-18T12:50:54.234Z,36.20
2022-08-18T12:55:59.274Z,36.10
2022-08-18T13:01:04.791Z,35.50
2022-08-18T13:06:11.842Z,36.60
2022-08-18T13:11:23.707Z,35.80
2022-08-18T13:16:47.792Z,37.00
2022-08-18T13:21:57.313Z,36.80
2022-08-18T13:27:00.715Z,35.90
2022-08-18T13:32:09.444Z,35.80
2022-08-18T13:37:15.217Z,35.40
2022-08-18T13:42:26.766Z,36.40
2022-08-18T13:47:38.039Z,37.00
2022-08-18T13:52:44.693Z,37.40
2022-08-18T13:57:50.704Z,37.00
2022-08-18T14:03:02.171Z,36.10
2022-08-18T14:08:06.814Z,35.50
2022-08-18T14:13:21.289Z,35.90
2022-08-18T14:18:30.681Z,36.50
2022-08-18T14:23:53.292Z,36.80
2022-08-18T14:28:56.890Z,36.80
2022-08-18T14:34:04.898Z,36.40
2022-08-18T14:54:17.823Z,34.80
2022-08-18T14:59:23.132Z,35.40
2022-08-18T15:04:27.655Z,35.50
2022-08-18T15:09:32.169Z,34.10
2022-08-18T15:59:52.973Z,30.00
2022-08-18T16:04:56.007Z,30.30
2022-08-18T16:10:01.313Z,30.50
2022-08-18T16:15:07.727Z,30.30
2022-08-18T16:20:12.191Z,30.00
2022-08-18T16:25:16.459Z,29.90
2022-08-18T16:38:20.441Z,29.40
2022-08-18T16:43:23.695Z,29.00
2022-08-18T16:53:39.836Z,28.20
2022-08-18T16:59:03.151Z,28.00
2022-08-18T17:04:13.630Z,27.90
2022-08-18T17:09:26.308Z,27.60
2022-08-18T17:14:31.406Z,27.30
2022-08-18T17:19:35.542Z,26.90
2022-08-18T17:24:49.496Z,26.50
2022-08-18T17:29:58.090Z,26.10
2022-08-18T17:35:07.000Z,25.80
2022-08-18T17:40:16.904Z,25.50
2022-08-18T17:45:22.039Z,25.40
2022-08-18T17:50:49.464Z,25.30
2022-08-18T17:56:00.013Z,25.10
2022-08-18T18:01:04.216Z,24.70
2022-08-18T18:06:11.216Z,24.40
2022-08-18T18:11:15.795Z,24.40
2022-08-18T18:16:23.547Z,24.40
2022-08-18T18:22:00.504Z,24.20
2022-08-18T18:26:52.305Z,24.30
2022-08-18T18:32:00.832Z,23.70
2022-08-18T18:37:04.185Z,23.40
2022-08-18T18:42:18.076Z,23.40
2022-08-18T18:47:45.746Z,23.30
2022-08-18T18:53:00.239Z,23.40
2022-08-18T18:58:16.362Z,23.30
2022-08-18T19:03:24.556Z,23.50
2022-08-18T19:08:39.603Z,23.50
2022-08-18T19:13:53.474Z,23.40
2022-08-18T19:19:37.707Z,23.20
2022-08-18T19:24:25.796Z,23.20
2022-08-18T19:29:34.834Z,23.10
2022-08-18T19:34:51.664Z,23.10
2022-08-18T19:40:09.348Z,23.10
2022-08-18T19:45:24.783Z,22.90
2022-08-18T19:50:33.583Z,22.80
2022-08-18T19:55:51.775Z,22.70
2022-08-18T20:01:00.269Z,22.80
2022-08-18T20:06:33.592Z,22.70
2022-08-18T20:11:56.102Z,22.70
2022-08-18T20:17:18.279Z,22.70
2022-08-18T20:22:34.104Z,22.80
2022-08-18T20:27:39.689Z,22.80
2022-08-18T20:32:44.262Z,22.70
2022-08-18T20:37:47.478Z,22.70
2022-08-18T20:43:06.799Z,22.70
2022-08-18T20:48:32.705Z,22.70
2022-08-18T20:53:57.786Z,22.90
2022-08-18T20:59:08.529Z,22.70
2022-08-18T21:04:13.444Z,22.70
2022-08-18T21:09:18.661Z,22.60
2022-08-18T21:14:25.464Z,22.50
2022-08-18T21:19:40.836Z,22.20
2022-08-18T21:24:49.886Z,21.80
2022-08-18T21:29:54.504Z,21.60
2022-08-18T21:35:09.978Z,21.70
2022-08-18T21:40:14.470Z,21.60
2022-08-18T21:45:23.377Z,21.40
2022-08-18T21:50:30.134Z,21.30
2022-08-18T21:55:37.291Z,21.20
2022-08-18T22:00:43.248Z,21.10
2022-08-18T22:05:58.874Z,21.10
2022-08-18T22:11:59.856Z,21.10
2022-08-18T22:17:24.466Z,21.10
2022-08-18T22:22:49.285Z,21.20
2022-08-18T22:27:53.576Z,21.20
2022-08-18T22:32:56.651Z,21.30
2022-08-18T22:38:01.628Z,21.40
2022-08-18T22:43:05.035Z,21.30
2022-08-18T22:48:08.085Z,21.00
2022-08-18T22:53:13.627Z,20.90
2022-08-18T22:58:22.089Z,20.90
2022-08-18T23:03:31.341Z,20.80
2022-08-18T23:08:55.097Z,20.80
2022-08-18T23:14:02.217Z,20.90
2022-08-18T23:19:05.510Z,20.80
2022-08-18T23:24:12.565Z,21.00
2022-08-18T23:29:16.061Z,20.80
2022-08-18T23:34:24.421Z,20.80
2022-08-18T23:39:31.417Z,20.80
2022-08-18T23:44:34.515Z,20.80
2022-08-18T23:49:38.250Z,20.80
2022-08-18T23:54:42.741Z,20.70
2022-08-18T23:59:45.843Z,20.70
